createdAt,value
2019-03-01T00:01:58.163Z,1.00
2019-03-01T00:04:51.689Z,1.00
2019-03-01T00:07:57.503Z,1.00
2019-03-01T00:11:06.434Z,1.00
2019-03-01T00:13:57.052Z,1.00
2019-03-01T00:16:54.790Z,1.00
2019-03-01T00:20:15.014Z,1.00
2019-03-01T00:23:08.662Z,1.00
2019-03-01T00:26:04.148Z,1.00
2019-03-01T00:28:45.874Z,1.00
2019-03-01T00:31:42.036Z,1.00
2019-03-01T00:34:54.102Z,1.00
2019-03-01T00:37:59.755Z,1.00
2019-03-01T00:40:39.079Z,1.00
2019-03-01T00:44:00.050Z,1.00
2019-03-01T00:46:28.942Z,1.00
2019-03-01T00:48:58.199Z,1.00
2019-03-01T00:51:27.383Z,1.00
2019-03-01T00:53:56.239Z,1.00
2019-03-01T00:56:25.188Z,1.00
2019-03-01T00:58:54.046Z,1.00
2019-03-01T01:01:22.842Z,1.00
2019-03-01T01:03:51.815Z,1.00
2019-03-01T01:06:20.653Z,1.00
2019-03-01T01:08:49.526Z,1.00
2019-03-01T01:11:18.663Z,1.00
2019-03-01T01:13:47.527Z,1.00
2019-03-01T01:16:16.623Z,1.00
2019-03-01T01:18:45.644Z,1.00
2019-03-01T01:21:14.556Z,1.00
2019-03-01T01:23:43.598Z,1.00
2019-03-01T01:26:12.629Z,1.00
2019-03-01T01:28:41.419Z,1.00
2019-03-01T01:31:10.310Z,1.00
2019-03-01T01:33:39.176Z,1.00
2019-03-01T01:36:08.212Z,1.00
2019-03-01T01:38:37.313Z,1.00
2019-03-01T01:41:06.188Z,1.00
2019-03-01T01:43:35.066Z,1.00
2019-03-01T01:46:04.274Z,1.00
2019-03-01T01:48:33.124Z,1.00
2019-03-01T01:51:01.928Z,1.00
2019-03-01T01:53:31.115Z,1.00
2019-03-01T01:56:00.045Z,1.00
2019-03-01T01:58:29.282Z,1.00
2019-03-01T02:00:58.222Z,1.00
2019-03-01T02:03:27.295Z,1.00
2019-03-01T02:05:56.827Z,1.00
2019-03-01T02:08:25.902Z,1.00
2019-03-01T02:10:54.848Z,1.00
2019-03-01T02:13:23.791Z,1.00
2019-03-01T02:15:52.886Z,1.00
2019-03-01T02:18:21.792Z,1.00
2019-03-01T02:20:50.755Z,1.00
2019-03-01T02:23:19.882Z,1.00
2019-03-01T02:25:48.857Z,1.00
2019-03-01T02:28:17.983Z,1.00
2019-03-01T02:30:47.398Z,1.00
2019-03-01T02:33:16.615Z,1.00
2019-03-01T02:35:45.581Z,1.00
2019-03-01T02:38:14.492Z,1.00
2019-03-01T02:40:45.123Z,1.00
2019-03-01T02:43:14.282Z,1.00
2019-03-01T02:45:43.332Z,1.00
2019-03-01T02:48:12.236Z,1.00
2019-03-01T02:50:41.270Z,1.00
2019-03-01T02:53:10.279Z,1.00
2019-03-01T02:55:39.282Z,1.00
2019-03-01T02:58:08.428Z,1.00
2019-03-01T03:00:37.456Z,1.00
2019-03-01T03:03:06.658Z,1.00
2019-03-01T03:05:46.083Z,1.00
2019-03-01T03:08:15.220Z,1.00
2019-03-01T03:10:44.065Z,1.00
2019-03-01T03:13:13.097Z,1.00
2019-03-01T03:15:44.613Z,1.00
2019-03-01T03:18:13.581Z,1.00
2019-03-01T03:20:42.493Z,1.00
2019-03-01T03:23:11.467Z,1.00
2019-03-01T03:25:40.460Z,1.00
2019-03-01T03:28:09.426Z,1.00
2019-03-01T03:30:38.661Z,1.00
2019-03-01T03:33:07.536Z,1.00
2019-03-01T03:35:36.450Z,1.00
2019-03-01T03:38:05.957Z,1.00
2019-03-01T03:40:35.082Z,1.00
2019-03-01T03:43:03.972Z,1.00
2019-03-01T03:45:32.883Z,1.00
2019-03-01T03:48:01.795Z,1.00
2019-03-01T03:50:30.961Z,1.00
2019-03-01T03:52:59.849Z,1.00
2019-03-01T03:55:28.827Z,1.00
2019-03-01T03:57:57.796Z,1.00
2019-03-01T04:00:27.037Z,1.00
2019-03-01T04:02:55.999Z,1.00
2019-03-01T04:05:24.942Z,1.00
2019-03-01T04:07:54.000Z,1.00
2019-03-01T04:10:23.138Z,1.00
2019-03-01T04:12:52.330Z,1.00
2019-03-01T04:15:21.323Z,1.00
2019-03-01T04:17:50.774Z,1.00
2019-03-01T04:20:19.788Z,1.00
2019-03-01T04:22:48.788Z,1.00
2019-03-01T04:25:17.851Z,1.00
2019-03-01T04:27:46.810Z,1.00
2019-03-01T04:30:16.683Z,1.00
2019-03-01T04:32:46.050Z,1.00
2019-03-01T04:35:15.407Z,1.00
2019-03-01T04:37:44.862Z,1.00
2019-03-01T04:40:16.611Z,1.00
2019-03-01T04:42:45.834Z,1.00
2019-03-01T04:45:14.905Z,1.00
2019-03-01T04:47:43.805Z,1.00
2019-03-01T04:50:13.468Z,1.00
2019-03-01T04:52:42.444Z,1.00
2019-03-01T04:55:16.506Z,1.00
2019-03-01T04:57:45.392Z,1.00
2019-03-01T05:00:16.376Z,1.00
2019-03-01T05:02:45.657Z,1.00
2019-03-01T05:05:15.217Z,1.00
2019-03-01T05:07:44.286Z,1.00
2019-03-01T05:10:13.502Z,1.00
2019-03-01T05:12:42.770Z,1.00
2019-03-01T05:15:14.623Z,1.00
2019-03-01T05:17:43.702Z,1.00
2019-03-01T05:20:14.235Z,1.00
2019-03-01T05:22:43.183Z,1.00
2019-03-01T05:25:12.157Z,1.00
2019-03-01T05:27:41.106Z,1.00
2019-03-01T05:30:11.351Z,1.00
2019-03-01T05:32:40.353Z,1.00
2019-03-01T05:35:09.394Z,1.00
2019-03-01T05:37:38.775Z,1.00
2019-03-01T05:40:08.611Z,1.00
2019-03-01T05:42:37.583Z,1.00
2019-03-01T05:45:09.143Z,1.00
2019-03-01T05:47:38.063Z,1.00
2019-03-01T05:50:07.791Z,1.00
2019-03-01T05:52:36.603Z,1.00
2019-03-01T05:55:06.659Z,1.00
2019-03-01T05:57:35.835Z,1.00
2019-03-01T06:00:07.161Z,1.00
2019-03-01T06:02:44.211Z,1.00
2019-03-01T06:05:19.393Z,1.00
2019-03-01T06:08:22.545Z,1.00
2019-03-01T06:11:19.623Z,1.00
2019-03-01T06:14:13.628Z,1.00
2019-03-01T06:17:30.317Z,3.00
2019-03-01T06:20:17.706Z,2.20
2019-03-01T06:22:56.837Z,4.20
2019-03-01T06:26:24.911Z,6.10
2019-03-01T06:29:36.688Z,8.30
2019-03-01T06:32:57.284Z,8.00
2019-03-01T06:35:55.150Z,8.50
2019-03-01T06:39:17.290Z,11.00
2019-03-01T06:42:31.143Z,10.80
2019-03-01T06:45:45.618Z,9.60
2019-03-01T06:48:23.299Z,7.80
2019-03-01T06:50:59.043Z,8.90
2019-03-01T06:53:28.176Z,9.60
2019-03-01T06:56:06.912Z,8.70
2019-03-01T06:58:48.203Z,7.20
2019-03-01T07:01:19.062Z,7.00
2019-03-01T07:03:55.972Z,6.20
2019-03-01T07:06:24.796Z,6.00
2019-03-01T07:08:53.938Z,2.60
2019-03-01T07:11:23.244Z,2.10
2019-03-01T07:13:52.060Z,1.70
2019-03-01T07:16:21.111Z,3.90
2019-03-01T07:18:50.270Z,3.40
2019-03-01T07:21:19.135Z,1.30
2019-03-01T07:23:48.230Z,1.10
2019-03-01T07:26:17.478Z,1.00
2019-03-01T07:28:46.576Z,1.00
2019-03-01T07:31:15.644Z,1.00
2019-03-01T07:33:44.902Z,1.00
2019-03-01T07:36:14.018Z,1.00
2019-03-01T07:38:42.860Z,1.00
2019-03-01T07:41:11.775Z,1.00
2019-03-01T07:43:40.601Z,1.00
2019-03-01T07:46:10.014Z,1.00
2019-03-01T07:48:39.052Z,1.00
2019-03-01T07:51:07.942Z,1.00
2019-03-01T07:53:41.081Z,1.00
2019-03-01T07:56:07.379Z,1.00
2019-03-01T07:58:36.180Z,1.00
2019-03-01T08:01:05.604Z,1.00
2019-03-01T08:03:34.803Z,1.00
2019-03-01T08:06:03.739Z,1.00
2019-03-01T08:08:34.873Z,1.00
2019-03-01T08:11:03.458Z,1.00
2019-03-01T08:13:32.991Z,1.00
2019-03-01T08:16:02.204Z,1.00
2019-03-01T08:18:31.007Z,1.00
2019-03-01T08:21:01.519Z,1.00
2019-03-01T08:23:31.809Z,1.00
2019-03-01T08:26:03.274Z,1.00
2019-03-01T08:28:31.673Z,1.00
2019-03-01T08:31:00.782Z,1.00
2019-03-01T08:33:29.973Z,1.00
2019-03-01T08:35:58.866Z,1.00
2019-03-01T08:38:28.789Z,1.00
2019-03-01T08:40:58.500Z,1.00
2019-03-01T08:43:27.684Z,1.00
2019-03-01T08:45:57.403Z,1.00
2019-03-01T08:48:26.292Z,1.00
2019-03-01T08:50:55.228Z,1.00
2019-03-01T08:53:24.083Z,1.00
2019-03-01T08:55:53.230Z,1.00
2019-03-01T08:58:22.612Z,1.00
2019-03-01T09:00:59.342Z,1.00
2019-03-01T09:03:31.525Z,1.00
2019-03-01T09:06:00.683Z,1.00
2019-03-01T09:08:29.733Z,1.00
2019-03-01T09:10:59.546Z,1.00
2019-03-01T09:13:31.625Z,1.00
2019-03-01T09:16:00.839Z,1.00
2019-03-01T09:18:29.924Z,1.00
2019-03-01T09:21:05.657Z,1.00
2019-03-01T09:23:29.635Z,1.00
2019-03-01T09:25:58.794Z,1.00
2019-03-01T09:28:27.647Z,1.00
2019-03-01T09:30:56.714Z,1.00
2019-03-01T09:33:25.639Z,1.00
2019-03-01T09:36:06.171Z,1.00
2019-03-01T09:38:34.991Z,1.00
2019-03-01T09:41:04.658Z,1.00
2019-03-01T09:43:34.311Z,1.00
2019-03-01T09:46:03.367Z,1.00
2019-03-01T09:48:32.447Z,1.00
2019-03-01T09:51:03.624Z,1.00
2019-03-01T09:53:35.209Z,1.00
2019-03-01T09:56:04.362Z,1.00
2019-03-01T09:58:33.514Z,1.00
2019-03-01T10:01:14.560Z,1.00
2019-03-01T10:03:43.857Z,1.00
2019-03-01T10:06:13.132Z,1.00
2019-03-01T10:08:42.124Z,1.00
2019-03-01T10:11:13.807Z,1.00
2019-03-01T10:13:45.593Z,1.00
2019-03-01T10:16:14.855Z,1.00
2019-03-01T10:18:51.118Z,1.00
2019-03-01T10:21:20.528Z,1.00
2019-03-01T10:23:49.893Z,1.00
2019-03-01T10:26:29.216Z,1.00
2019-03-01T10:29:00.537Z,1.00
2019-03-01T10:31:31.266Z,1.00
2019-03-01T10:34:00.660Z,1.00
2019-03-01T10:36:29.945Z,1.00
2019-03-01T10:39:23.037Z,1.00
2019-03-01T10:41:34.773Z,1.00
2019-03-01T10:44:06.352Z,1.00
2019-03-01T10:46:36.651Z,1.00
2019-03-01T10:49:06.566Z,1.00
2019-03-01T10:51:48.795Z,1.00
2019-03-01T10:54:31.294Z,1.00
2019-03-01T10:57:03.263Z,1.00
2019-03-01T10:59:33.073Z,1.00
2019-03-01T11:02:08.721Z,1.00
2019-03-01T11:04:43.558Z,1.00
2019-03-01T11:07:15.813Z,1.00
2019-03-01T11:09:55.771Z,1.00
2019-03-01T11:12:26.410Z,1.00
2019-03-01T11:15:00.231Z,1.00
2019-03-01T11:17:34.415Z,1.00
2019-03-01T11:20:07.403Z,1.00
2019-03-01T11:22:40.902Z,1.00
2019-03-01T11:25:18.909Z,1.00
2019-03-01T11:27:54.932Z,1.00
2019-03-01T11:30:28.160Z,1.00
2019-03-01T11:33:13.536Z,1.00
2019-03-01T11:35:59.529Z,1.00
2019-03-01T11:38:40.134Z,1.00
2019-03-01T11:41:17.081Z,1.00
2019-03-01T11:44:01.649Z,1.00
2019-03-01T11:46:37.794Z,1.00
2019-03-01T11:49:18.773Z,1.00
2019-03-01T11:51:58.706Z,1.00
2019-03-01T11:54:37.223Z,1.00
2019-03-01T11:57:12.468Z,1.00
2019-03-01T11:59:57.650Z,1.00
2019-03-01T12:02:34.734Z,1.00
2019-03-01T12:05:08.420Z,1.00
2019-03-01T12:07:40.208Z,1.00
2019-03-01T12:10:12.680Z,1.00
2019-03-01T12:12:47.749Z,1.00
2019-03-01T12:15:28.583Z,1.00
2019-03-01T12:18:05.430Z,1.00
2019-03-01T12:20:46.199Z,1.00
2019-03-01T12:23:19.332Z,1.00
2019-03-01T12:26:10.385Z,1.00
2019-03-01T12:28:51.818Z,1.00
2019-03-01T12:31:40.475Z,1.00
2019-03-01T12:34:23.085Z,1.00
2019-03-01T12:37:03.857Z,1.00
2019-03-01T12:39:32.839Z,1.00
2019-03-01T12:42:01.874Z,1.00
2019-03-01T12:44:30.767Z,1.00
2019-03-01T12:46:59.645Z,1.00
2019-03-01T12:49:28.803Z,1.00
2019-03-01T12:51:57.827Z,1.00
2019-03-01T12:54:27.023Z,1.00
2019-03-01T12:56:55.962Z,1.00
2019-03-01T12:59:25.086Z,1.00
2019-03-01T13:01:53.940Z,1.00
2019-03-01T13:04:22.819Z,1.00
2019-03-01T13:06:51.711Z,1.00
2019-03-01T13:09:23.432Z,1.00
2019-03-01T13:11:52.067Z,1.00
2019-03-01T13:14:20.963Z,1.00
2019-03-01T13:16:50.012Z,1.00
2019-03-01T13:19:18.982Z,1.00
2019-03-01T13:21:49.193Z,1.00
2019-03-01T13:24:18.660Z,1.00
2019-03-01T13:26:47.548Z,1.00
2019-03-01T13:29:19.081Z,1.00
2019-03-01T13:31:47.923Z,1.00
2019-03-01T13:34:16.976Z,1.00
2019-03-01T13:36:46.005Z,1.00
2019-03-01T13:39:14.978Z,1.00
2019-03-01T13:41:44.114Z,1.00
2019-03-01T13:44:13.881Z,1.00
2019-03-01T13:46:42.828Z,1.00
2019-03-01T13:49:11.649Z,1.00
2019-03-01T13:51:40.555Z,1.00
2019-03-01T13:54:09.856Z,1.00
2019-03-01T13:56:38.847Z,1.00
2019-03-01T13:59:07.740Z,1.00
2019-03-01T14:01:36.716Z,1.00
2019-03-01T14:04:05.608Z,1.00
2019-03-01T14:06:34.810Z,1.00
2019-03-01T14:09:05.540Z,1.00
2019-03-01T14:11:34.699Z,1.00
2019-03-01T14:14:04.304Z,1.00
2019-03-01T14:16:33.243Z,1.00
2019-03-01T14:19:02.291Z,1.00
2019-03-01T14:21:33.064Z,1.00
2019-03-01T14:24:01.782Z,1.00
2019-03-01T14:26:30.739Z,1.00
2019-03-01T14:29:02.826Z,1.00
2019-03-01T14:31:31.629Z,1.00
2019-03-01T14:34:00.526Z,1.00
2019-03-01T14:36:29.417Z,1.00
2019-03-01T14:38:58.598Z,1.00
2019-03-01T14:41:27.709Z,1.00
2019-03-01T14:43:59.098Z,1.00
2019-03-01T14:46:28.434Z,1.00
2019-03-01T14:48:57.357Z,1.00
2019-03-01T14:51:26.255Z,1.00
2019-03-01T14:53:55.163Z,1.00
2019-03-01T14:56:31.185Z,1.00
2019-03-01T14:59:37.985Z,1.00
2019-03-01T15:02:41.136Z,1.00
2019-03-01T15:05:17.182Z,1.00
2019-03-01T15:07:40.777Z,1.00
2019-03-01T15:10:10.767Z,1.00
2019-03-01T15:12:39.732Z,1.00
2019-03-01T15:15:10.133Z,1.00
2019-03-01T15:17:39.243Z,1.00
2019-03-01T15:20:10.547Z,1.00
2019-03-01T15:22:39.615Z,1.00
2019-03-01T15:25:11.964Z,1.00
2019-03-01T15:27:40.135Z,1.00
2019-03-01T15:30:12.236Z,1.00
2019-03-01T15:32:41.128Z,1.00
2019-03-01T15:35:10.691Z,1.00
2019-03-01T15:37:39.732Z,1.00
2019-03-01T15:40:08.720Z,1.00
2019-03-01T15:42:37.970Z,1.00
2019-03-01T15:45:08.303Z,1.00
2019-03-01T15:47:37.659Z,1.00
2019-03-01T15:50:08.080Z,1.00
2019-03-01T15:52:37.104Z,1.00
2019-03-01T15:55:07.715Z,1.00
2019-03-01T15:57:37.435Z,1.00
2019-03-01T16:00:06.875Z,1.00
2019-03-01T16:02:35.811Z,1.00
2019-03-01T16:05:05.347Z,1.00
2019-03-01T16:07:34.322Z,1.00
2019-03-01T16:10:03.728Z,1.00
2019-03-01T16:12:36.015Z,1.00
2019-03-01T16:15:03.367Z,1.00
2019-03-01T16:17:32.307Z,1.00
2019-03-01T16:20:01.310Z,1.00
2019-03-01T16:22:30.512Z,1.00
2019-03-01T16:25:01.948Z,1.00
2019-03-01T16:27:30.968Z,1.00
2019-03-01T16:30:00.314Z,1.00
2019-03-01T16:32:32.341Z,1.00
2019-03-01T16:35:05.056Z,1.00
2019-03-01T16:37:34.227Z,1.00
2019-03-01T16:40:03.283Z,1.00
2019-03-01T16:42:38.948Z,1.00
2019-03-01T16:45:09.207Z,1.00
2019-03-01T16:47:43.008Z,1.00
2019-03-01T16:50:14.535Z,1.00
2019-03-01T16:52:46.302Z,1.00
2019-03-01T16:55:16.187Z,1.00
2019-03-01T16:57:52.069Z,1.00
2019-03-01T17:00:23.091Z,1.00
2019-03-01T17:02:52.475Z,1.00
2019-03-01T17:05:21.465Z,1.00
2019-03-01T17:07:51.265Z,1.00
2019-03-01T17:10:20.395Z,1.00
2019-03-01T17:12:52.058Z,1.00
2019-03-01T17:15:20.637Z,1.00
2019-03-01T17:17:49.651Z,1.00
2019-03-01T17:20:18.635Z,1.00
2019-03-01T17:22:47.693Z,1.00
2019-03-01T17:25:19.294Z,1.00
2019-03-01T17:27:49.555Z,1.00
2019-03-01T17:30:19.282Z,1.00
2019-03-01T17:32:48.508Z,1.00
2019-03-01T17:35:17.683Z,1.00
2019-03-01T17:37:46.826Z,1.00
2019-03-01T17:40:15.944Z,1.00
2019-03-01T17:42:44.915Z,1.00
2019-03-01T17:45:17.290Z,1.00
2019-03-01T17:47:55.214Z,1.00
2019-03-01T17:50:24.105Z,1.00
2019-03-01T17:52:54.913Z,1.00
2019-03-01T17:55:24.570Z,1.00
2019-03-01T17:57:53.457Z,1.00
2019-03-01T18:00:27.417Z,1.00
2019-03-01T18:02:56.310Z,1.00
2019-03-01T18:05:25.352Z,1.00
2019-03-01T18:07:54.668Z,1.00
2019-03-01T18:10:28.791Z,1.00
2019-03-01T18:12:57.296Z,1.00
2019-03-01T18:15:26.513Z,1.00
2019-03-01T18:17:55.569Z,1.00
2019-03-01T18:20:24.758Z,1.00
2019-03-01T18:22:54.041Z,1.00
2019-03-01T18:25:26.226Z,1.00
2019-03-01T18:27:54.589Z,1.00
2019-03-01T18:30:23.684Z,1.00
2019-03-01T18:32:53.267Z,1.00
2019-03-01T18:35:22.396Z,1.00
2019-03-01T18:37:54.889Z,1.00
2019-03-01T18:40:24.577Z,1.00
2019-03-01T18:42:53.921Z,1.00
2019-03-01T18:45:22.984Z,1.00
2019-03-01T18:47:52.075Z,1.00
2019-03-01T18:50:27.523Z,1.00
2019-03-01T18:52:55.059Z,1.00
2019-03-01T18:55:28.320Z,1.00
2019-03-01T18:57:57.285Z,1.00
2019-03-01T19:00:29.077Z,1.00
2019-03-01T19:03:01.043Z,1.00
2019-03-01T19:05:28.916Z,1.00
2019-03-01T19:08:00.810Z,1.00
2019-03-01T19:10:28.793Z,1.00
2019-03-01T19:12:57.899Z,1.00
2019-03-01T19:15:26.817Z,1.00
2019-03-01T19:17:58.630Z,1.00
2019-03-01T19:20:27.783Z,1.00
2019-03-01T19:22:56.702Z,1.00
2019-03-01T19:25:26.547Z,1.00
2019-03-01T19:27:55.645Z,1.00
2019-03-01T19:30:25.013Z,1.00
2019-03-01T19:32:54.013Z,1.00
2019-03-01T19:35:28.494Z,1.00
2019-03-01T19:37:54.355Z,1.00
2019-03-01T19:40:23.762Z,1.00
2019-03-01T19:42:52.759Z,1.00
2019-03-01T19:45:21.780Z,1.00
2019-03-01T19:47:50.764Z,1.00
2019-03-01T19:50:21.830Z,1.00
2019-03-01T19:52:50.786Z,1.00
2019-03-01T19:55:19.665Z,1.00
2019-03-01T19:57:48.624Z,1.00
2019-03-01T20:00:20.112Z,1.00
2019-03-01T20:02:49.209Z,1.00
2019-03-01T20:05:20.772Z,1.00
2019-03-01T20:07:51.768Z,1.00
2019-03-01T20:10:21.148Z,1.00
2019-03-01T20:12:50.512Z,1.00
2019-03-01T20:15:20.834Z,1.00
2019-03-01T20:17:49.922Z,1.00
2019-03-01T20:20:19.760Z,1.00
2019-03-01T20:22:50.535Z,1.00
2019-03-01T20:25:19.418Z,1.00
2019-03-01T20:27:48.342Z,1.00
2019-03-01T20:30:28.463Z,1.00
2019-03-01T20:32:52.669Z,1.00
2019-03-01T20:35:21.631Z,1.00
2019-03-01T20:37:50.607Z,1.00
2019-03-01T20:40:22.707Z,1.00
2019-03-01T20:42:50.385Z,1.00
2019-03-01T20:45:21.733Z,1.00
2019-03-01T20:47:53.578Z,1.00
2019-03-01T20:50:21.569Z,1.00
2019-03-01T20:52:50.579Z,1.00
2019-03-01T20:55:20.068Z,1.00
2019-03-01T20:57:49.276Z,1.00
2019-03-01T21:00:18.240Z,1.00
2019-03-01T21:02:50.224Z,1.00
2019-03-01T21:05:17.923Z,1.00
2019-03-01T21:07:48.218Z,1.00
2019-03-01T21:10:19.366Z,1.00
2019-03-01T21:12:48.568Z,1.00
2019-03-01T21:15:17.576Z,1.00
2019-03-01T21:17:46.631Z,1.00
2019-03-01T21:20:19.565Z,1.00
2019-03-01T21:22:48.814Z,1.00
2019-03-01T21:25:19.602Z,1.00
2019-03-01T21:27:48.797Z,1.00
2019-03-01T21:30:20.735Z,1.00
2019-03-01T21:32:50.771Z,1.00
2019-03-01T21:35:20.652Z,1.00
2019-03-01T21:37:49.673Z,1.00
2019-03-01T21:40:18.635Z,1.00
2019-03-01T21:42:48.553Z,1.00
2019-03-01T21:45:21.576Z,1.00
2019-03-01T21:47:49.022Z,1.00
2019-03-01T21:50:18.151Z,1.00
2019-03-01T21:52:47.074Z,1.00
2019-03-01T21:55:16.244Z,1.00
2019-03-01T21:57:45.184Z,1.00
2019-03-01T22:00:17.017Z,1.00
2019-03-01T22:02:48.778Z,1.00
2019-03-01T22:05:16.836Z,1.00
2019-03-01T22:07:45.751Z,1.00
2019-03-01T22:10:15.949Z,1.00
2019-03-01T22:12:44.928Z,1.00
2019-03-01T22:15:16.128Z,1.00
2019-03-01T22:17:45.391Z,1.00
2019-03-01T22:20:15.938Z,1.00
2019-03-01T22:22:44.902Z,1.00
2019-03-01T22:25:13.884Z,1.00
2019-03-01T22:27:43.240Z,1.00
2019-03-01T22:30:14.944Z,1.00
2019-03-01T22:32:45.483Z,1.00
2019-03-01T22:35:14.818Z,1.00
2019-03-01T22:37:43.770Z,1.00
2019-03-01T22:40:12.769Z,1.00
2019-03-01T22:42:41.648Z,1.00
2019-03-01T22:45:13.633Z,1.00
2019-03-01T22:47:42.688Z,1.00
2019-03-01T22:50:12.568Z,1.00
2019-03-01T22:52:41.565Z,1.00
2019-03-01T22:55:11.542Z,1.00
2019-03-01T22:57:40.892Z,1.00
2019-03-01T23:00:19.516Z,1.00
2019-03-01T23:02:47.191Z,1.00
2019-03-01T23:05:16.172Z,1.00
2019-03-01T23:07:45.171Z,1.00
2019-03-01T23:10:18.431Z,1.00
2019-03-01T23:12:46.759Z,1.00
2019-03-01T23:15:15.762Z,1.00
2019-03-01T23:17:44.676Z,1.00
2019-03-01T23:20:13.850Z,1.00
2019-03-01T23:22:45.988Z,1.00
2019-03-01T23:25:13.781Z,1.00
2019-03-01T23:27:42.924Z,1.00
2019-03-01T23:30:11.874Z,1.00
2019-03-01T23:32:40.746Z,1.00
2019-03-01T23:35:10.106Z,1.00
2019-03-01T23:37:39.877Z,1.00
2019-03-01T23:40:08.995Z,1.00
2019-03-01T23:42:37.873Z,1.00
2019-03-01T23:45:08.675Z,1.00
2019-03-01T23:47:38.356Z,1.00
2019-03-01T23:50:08.423Z,1.00
2019-03-01T23:52:37.283Z,1.00
2019-03-01T23:55:06.284Z,1.00
2019-03-01T23:57:37.958Z,1.00
